Lexington, Kentucky
Current Conditions -  °F | °C
As of 7:54 AM on Monday 20 Oct 2014 (Local Time) from KLEX Reporting Station
Clear Clear  
Wind Chill: 45°   Ceiling: Unl
Heat Index: 48°   Visibility: 10mi
Dew Point: 42°   Wind: 7mph
Humidity: 80%   Direction: 180°S
Pressure: 30.05"   Gusts: NA
Location:  37.99°N, 84.48°W
Report Text: KLEX 201154Z 18006KT 10SM CLR 09/06 A3005 RMK AO2 SLP175 T00890056 10094 20072 50000 $
Loading
Personal Weather Stations






























Interactive Weather Map
Tropical Storm Tracking
New forecast layout! Learn more

10-Day Weather Forecast

Advertisements
Track Severe Weather on mobile